Pagina principale
METAR-TAF:

METAR-TAF

Aeroporti :

Bolzano, Italia

latitudine: 46-28N, longitudine: 011-20E, altezza: 262 m

Osservazione

Il bollettino è stato emesso 47 minuti fa, alle 08:50 UTC
Vento 3 kt da direzioni variabili
Temperature 26°C
Umidità 42%
Pressione 1017 hPa
Visibilità 10 km o più
nessuna nube inferiore a 1500 m e nessun cumulonembo

METAR: LIPB 290850Z VRB03KT CAVOK 26/12 Q1017

Ora: 11:37 (09:37 UTC)

Previsione

Il bollettino è stato emesso 4 ore e 37 minuti fa, alle 05:00 UTC
Previsione valida dal 29 alle 06 UTC al 30 alle 06 UTC
Vento 5 kt da direzioni variabili
Visibilità 10 km o più
Nubi sparse ad un'altezza di 3000 ft
Evoluzione graduale
dal 29 alle 12 UTC al 29 alle 14 UTC
Vento 15 kt da sud con raffiche fino a 28 kt
Evoluzione graduale
dal 29 alle 17 UTC al 29 alle 19 UTC
Vento 5 kt da direzioni variabili

TAF: LIPB 290500Z 2906/3006 VRB05KT 9999 SCT030 BECMG 2912/2914 18015G28KT BECMG 2917/2919 VRB05KT

Osservazioni e previsioni meteorologiche di più di 4000 aeroporti (messaggi METAR e TAF).

Le stazioni disponibili sono rappresentate dai dischi gialli e rossi sulla carta.

Puntare il mouse per vedere il nome della stazione.

Clicca sopra per visualizzare le osservazioni e previsioni meteorologiche.

Per cambiare la mappa : fare clic sui pulsanti verdi con una croce nera per ingrandire, il pulsante verde con un trattino per diminuire, o sulla freccia verde per le mappe adiacenti.


METAR-TAF: